createdAt,value
2022-08-11T00:05:55.934Z,1025.54
2022-08-11T00:16:02.046Z,1025.58
2022-08-11T00:26:08.540Z,1025.57
2022-08-11T00:36:15.611Z,1025.54
2022-08-11T00:46:21.752Z,1025.52
2022-08-11T00:56:28.449Z,1025.64
2022-08-11T01:06:35.538Z,1025.59
2022-08-11T01:16:41.807Z,1025.61
2022-08-11T01:26:48.460Z,1025.62
2022-08-11T01:36:56.914Z,1025.70
2022-08-11T01:47:02.995Z,1025.70
2022-08-11T01:57:09.900Z,1025.63
2022-08-11T02:07:19.310Z,1025.62
2022-08-11T02:17:26.348Z,1025.57
2022-08-11T02:27:33.004Z,1025.53
2022-08-11T02:37:39.522Z,1025.50
2022-08-11T02:47:46.330Z,1025.46
2022-08-11T02:57:52.877Z,1025.43
2022-08-11T03:07:59.495Z,1025.48
2022-08-11T03:18:05.918Z,1025.51
2022-08-11T03:28:12.894Z,1025.47
2022-08-11T03:38:19.600Z,1025.50
2022-08-11T03:48:26.847Z,1025.49
2022-08-11T03:58:36.875Z,1025.53
2022-08-11T04:08:44.314Z,1025.51
2022-08-11T04:18:50.440Z,1025.54
2022-08-11T04:28:57.199Z,1025.54
2022-08-11T04:39:04.223Z,1025.60
2022-08-11T04:49:10.712Z,1025.61
2022-08-11T04:59:17.522Z,1025.61
2022-08-11T05:09:24.774Z,1025.65
2022-08-11T05:19:32.292Z,1025.75
2022-08-11T05:29:38.366Z,1025.77
2022-08-11T05:39:45.234Z,1025.78
2022-08-11T05:49:52.492Z,1025.81
2022-08-11T05:59:59.276Z,1025.89
2022-08-11T06:10:06.278Z,1025.95
2022-08-11T06:20:15.452Z,1026.04
2022-08-11T06:30:22.030Z,1026.05
2022-08-11T06:40:28.329Z,1026.03
2022-08-11T06:50:34.323Z,1026.02
2022-08-11T07:00:40.257Z,1026.00
2022-08-11T07:10:46.389Z,1025.92
2022-08-11T07:20:53.025Z,1025.84
2022-08-11T07:30:59.828Z,1025.76
2022-08-11T07:41:05.957Z,1025.73
2022-08-11T07:51:14.517Z,1025.69
2022-08-11T08:01:21.954Z,1025.68
2022-08-11T08:11:29.775Z,1025.70
2022-08-11T08:21:36.068Z,1025.68
2022-08-11T08:31:42.775Z,1025.67
2022-08-11T08:41:48.996Z,1025.61
2022-08-11T08:52:01.573Z,1025.57
2022-08-11T09:02:07.736Z,1025.53
2022-08-11T09:12:14.604Z,1025.39
2022-08-11T09:22:20.985Z,1025.43
2022-08-11T09:32:27.460Z,1025.42
2022-08-11T09:42:34.571Z,1025.39
2022-08-11T09:52:57.238Z,1025.22
2022-08-11T10:02:53.211Z,1025.16
2022-08-11T10:13:00.215Z,1024.99
2022-08-11T10:23:06.843Z,1024.88
2022-08-11T10:33:19.071Z,1024.84
2022-08-11T10:44:01.352Z,1024.74
2022-08-11T10:53:37.577Z,1024.71
2022-08-11T11:03:44.712Z,1024.55
2022-08-11T11:13:53.383Z,1024.49
2022-08-11T11:24:02.557Z,1024.38
2022-08-11T11:34:12.587Z,1024.35
2022-08-11T11:44:20.114Z,1024.27
2022-08-11T11:54:26.978Z,1024.22
2022-08-11T12:04:33.980Z,1024.14
2022-08-11T12:14:40.780Z,1024.05
2022-08-11T12:24:46.718Z,1023.86
2022-08-11T12:34:53.137Z,1023.83
2022-08-11T12:45:00.397Z,1023.68
2022-08-11T12:55:12.577Z,1023.63
2022-08-11T13:05:18.035Z,1023.46
2022-08-11T13:15:24.960Z,1023.38
2022-08-11T13:25:31.275Z,1023.31
2022-08-11T13:35:37.782Z,1023.29
2022-08-11T13:45:44.511Z,1023.18
2022-08-11T13:55:52.648Z,1023.14
2022-08-11T14:05:59.608Z,1023.08
2022-08-11T14:16:06.387Z,1023.03
2022-08-11T14:26:12.995Z,1022.86
2022-08-11T14:36:19.507Z,1022.82
2022-08-11T14:46:25.437Z,1022.87
2022-08-11T14:56:31.754Z,1022.77
2022-08-11T15:06:38.022Z,1022.69
2022-08-11T15:16:44.202Z,1022.67
2022-08-11T15:26:51.257Z,1022.52
2022-08-11T15:36:58.698Z,1022.46
2022-08-11T15:47:05.461Z,1022.41
2022-08-11T15:57:12.562Z,1022.34
2022-08-11T16:07:19.659Z,1022.28
2022-08-11T16:17:28.404Z,1022.24
2022-08-11T16:27:35.301Z,1022.21
2022-08-11T16:37:42.779Z,1022.18
2022-08-11T16:48:02.942Z,1022.25
2022-08-11T16:58:02.299Z,1022.21
2022-08-11T17:08:09.328Z,1022.19
2022-08-11T17:18:16.669Z,1022.18
2022-08-11T17:28:24.542Z,1022.19
2022-08-11T17:38:33.632Z,1022.22
2022-08-11T17:48:47.958Z,1022.21
2022-08-11T17:58:52.735Z,1022.21
2022-08-11T18:08:59.866Z,1022.30
2022-08-11T18:19:07.113Z,1022.40
2022-08-11T18:29:13.697Z,1022.45
2022-08-11T18:39:20.472Z,1022.53
2022-08-11T18:49:27.323Z,1022.57
2022-08-11T18:59:38.519Z,1022.61
2022-08-11T19:09:45.572Z,1022.66
2022-08-11T19:19:52.467Z,1022.73
2022-08-11T19:30:07.722Z,1022.74
2022-08-11T19:40:11.340Z,1022.61
2022-08-11T19:51:37.396Z,1022.66
2022-08-11T20:02:13.628Z,1022.65
2022-08-11T20:11:56.050Z,1022.72
2022-08-11T20:22:07.864Z,1022.73
2022-08-11T20:32:15.091Z,1022.86
2022-08-11T20:42:22.055Z,1022.92
2022-08-11T20:52:29.231Z,1023.01
2022-08-11T21:02:36.398Z,1023.05
2022-08-11T21:12:43.817Z,1023.15
2022-08-11T21:22:59.314Z,1023.18
2022-08-11T21:33:02.169Z,1023.29
2022-08-11T21:43:08.505Z,1023.27
2022-08-11T21:53:15.539Z,1023.31
2022-08-11T22:03:22.416Z,1023.28
2022-08-11T22:13:28.238Z,1023.24
2022-08-11T22:23:36.151Z,1023.23
2022-08-11T22:34:02.149Z,1023.18
2022-08-11T22:43:54.678Z,1023.22
2022-08-11T22:54:00.966Z,1023.26
2022-08-11T23:04:07.338Z,1023.31
2022-08-11T23:14:14.340Z,1023.36
2022-08-11T23:24:20.543Z,1023.34
2022-08-11T23:34:41.591Z,1023.37
2022-08-11T23:44:39.369Z,1023.40
2022-08-11T23:54:46.154Z,1023.31
